Weather History for KFWZ - April, 2014

Change the Weather History Date:

Thursday, April 24, 2014

  Actual Average (KLND) Record (KLND)
Temperature  
Mean Temperature 34 °F 46 °F  
Max Temperature 42 °F 59 °F 82 °F (2012)
Min Temperature 26 °F 34 °F 13 °F (1892)
Degree Days  
Heating Degree Days 31 19  
Month to date heating degree days 529  
Since 1 July heating degree days 7148  
Cooling Degree Days 0 0  
Month to date cooling degree days 0  
Year to date cooling degree days 0  
Moisture  
Dew Point 20 °F    
Average Humidity 58    
Maximum Humidity 74    
Minimum Humidity 42    
Precipitation  
Precipitation 0.00 in 0.07 in 0.90 in (1990)
Month to date precipitation 1.43  
Year to date precipitation 3.58  
Snow  
Snow 0.00 in 0.60 in - ()
Month to date snowfall 13.8  
Since 1 July snowfall 83.5  
Snow Depth -    
Sea Level Pressure  
Sea Level Pressure 29.88 in    
Wind  
Wind Speed 16 mph (WSW)    
Max Wind Speed 37 mph    
Max Gust Speed 48 mph    
Visibility 10 miles    
Events Snow    
T = Trace of Precipitation, MM = Missing Value Source: NWS Daily Summary

Daily Weather History Graph

Daily Weather History Graph

Search for Another Location

Airport or City:

Trip Planner

Search our weather history database for the weather conditions in past years. The results will help you decide how hot, cold, wet, or windy it might be!

Date:

Astronomy

Apr. 24, 2014 Rise Set
Actual Time 6:19 AM MDT 8:07 PM MDT
Civil Twilight 5:49 AM MDT 8:37 PM MDT
Nautical Twilight 5:13 AM MDT 9:14 PM MDT
Astronomical Twilight 4:34 AM MDT 9:53 PM MDT
Moon 3:39 AM MDT (4/24) 3:20 PM MDT (4/24)
Length of Visible Light 14h 47m
Length of Day
13h 47m
Waning Crescent, 24% of the Moon is Illuminated
Apr 24
Waning Crescent
Apr 29
New
May 6
First Quarter
May 14
Full
May 21
Last Quarter

Hourly Weather History & Observations

Time (MDT) Temp. Windchill Dew Point Humidity Pressure Visibility Wind Dir Wind Speed Gust Speed Precip Events Conditions
12:15 AM 26.6 °F 15.7 °F 17.6 °F 69% - 10.0 mi WSW 12.7 mph 20.7 mph N/A   Clear
12:35 AM 28.4 °F 16.6 °F 14.0 °F 55% - 10.0 mi WSW 16.1 mph 28.8 mph N/A   Clear
12:55 AM 28.4 °F 20.4 °F 14.0 °F 55% - 10.0 mi West 8.1 mph 23.0 mph N/A   Clear
1:15 AM 26.6 °F 16.8 °F 14.0 °F 59% 29.92 in 10.0 mi SW 10.4 mph - N/A   Clear
1:35 AM 28.4 °F 18.5 °F 14.0 °F 55% - 10.0 mi WSW 11.5 mph 24.2 mph N/A   Clear
1:55 AM 28.4 °F 18.0 °F 14.0 °F 55% - 10.0 mi WSW 12.7 mph 20.7 mph N/A   Clear
2:15 AM 28.4 °F 17.0 °F 14.0 °F 55% - 10.0 mi WSW 15.0 mph 25.3 mph N/A   Clear
2:35 AM 28.4 °F 18.0 °F 12.2 °F 51% - 10.0 mi West 12.7 mph 21.9 mph N/A   Clear
2:55 AM 28.4 °F 18.0 °F 12.2 °F 51% - 10.0 mi WSW 12.7 mph 24.2 mph N/A   Clear
3:15 AM 28.4 °F 20.4 °F 14.0 °F 55% - 10.0 mi WSW 8.1 mph 17.3 mph N/A   Clear
3:35 AM 26.6 °F 16.8 °F 14.0 °F 59% - 10.0 mi WSW 10.4 mph 18.4 mph N/A   Clear
3:55 AM 28.4 °F 16.6 °F 12.2 °F 51% - 10.0 mi WSW 16.1 mph 26.5 mph N/A   Clear
4:15 AM 26.6 °F 14.7 °F 14.0 °F 59% - 10.0 mi WSW 15.0 mph 23.0 mph N/A   Clear
4:35 AM 26.6 °F 14.3 °F 15.8 °F 64% - 10.0 mi WSW 16.1 mph 25.3 mph N/A   Clear
4:55 AM 26.6 °F 13.8 °F 17.6 °F 69% - 10.0 mi WSW 17.3 mph 21.9 mph N/A   Clear
5:15 AM 26.6 °F 14.3 °F 17.6 °F 69% - 10.0 mi WSW 16.1 mph 25.3 mph N/A   Clear
5:35 AM 26.6 °F 14.3 °F 17.6 °F 69% - 10.0 mi WSW 16.1 mph 20.7 mph N/A   Clear
5:55 AM 26.6 °F 15.2 °F 17.6 °F 69% - 10.0 mi WSW 13.8 mph - N/A   Clear
6:15 AM 26.6 °F 14.7 °F 17.6 °F 69% - 10.0 mi WSW 15.0 mph 20.7 mph N/A   Clear
6:35 AM 26.6 °F 13.8 °F 17.6 °F 69% - 10.0 mi WSW 17.3 mph 24.2 mph N/A   Clear
6:55 AM 26.6 °F 13.8 °F 17.6 °F 69% - 10.0 mi West 17.3 mph 26.5 mph N/A   Clear
7:15 AM 28.4 °F 17.0 °F 17.6 °F 64% - 10.0 mi WSW 15.0 mph 27.6 mph N/A   Clear
7:35 AM 28.4 °F 18.0 °F 17.6 °F 64% - 10.0 mi West 12.7 mph 21.9 mph N/A   Clear
7:55 AM 26.6 °F 12.4 °F 19.4 °F 74% - 10.0 mi WSW 21.9 mph 25.3 mph N/A   Clear
8:15 AM 26.6 °F 12.0 °F 19.4 °F 74% - 10.0 mi WSW 23.0 mph 28.8 mph N/A   Clear
8:35 AM 26.6 °F 11.1 °F 19.4 °F 74% 29.92 in 10.0 mi WSW 26.5 mph 33.4 mph N/A   Clear
8:55 AM 26.6 °F 13.8 °F 19.4 °F 74% - 10.0 mi WSW 17.3 mph - N/A Snow Light Snow
9:15 AM 26.6 °F 13.4 °F 19.4 °F 74% - 10.0 mi WSW 18.4 mph - N/A   Mostly Cloudy
9:35 AM 26.6 °F 14.7 °F 19.4 °F 74% - 10.0 mi WSW 15.0 mph - N/A   Overcast
9:55 AM 28.4 °F 18.5 °F 19.4 °F 69% - 10.0 mi WSW 11.5 mph 17.3 mph N/A   Overcast
10:15 AM 30.2 °F 18.5 °F 21.2 °F 69% - 10.0 mi WSW 17.3 mph 21.9 mph N/A   Scattered Clouds
10:35 AM 30.2 °F 19.8 °F 21.2 °F 69% - 10.0 mi SW 13.8 mph 18.4 mph N/A   Scattered Clouds
10:55 AM 32.0 °F 22.5 °F 21.2 °F 64% - 10.0 mi WSW 12.7 mph 20.7 mph N/A   Mostly Cloudy
11:15 AM 33.8 °F 24.3 °F 21.2 °F 60% 29.94 in 10.0 mi WSW 13.8 mph 24.2 mph N/A   Mostly Cloudy
11:35 AM 33.8 °F 23.5 °F 21.2 °F 60% 29.94 in 10.0 mi SW 16.1 mph 25.3 mph N/A   Mostly Cloudy
11:55 AM 35.6 °F 26.2 °F 21.2 °F 56% 29.94 in 10.0 mi WSW 15.0 mph 19.6 mph N/A   Overcast
12:15 PM 37.4 °F 29.8 °F 21.2 °F 52% 29.92 in 10.0 mi WSW 11.5 mph 24.2 mph N/A   Mostly Cloudy
12:35 PM 37.4 °F 27.8 °F 21.2 °F 52% 29.91 in 10.0 mi WSW 17.3 mph 25.3 mph N/A   Scattered Clouds
12:55 PM 37.4 °F 28.9 °F 21.2 °F 52% 29.90 in 10.0 mi West 13.8 mph 23.0 mph N/A   Scattered Clouds
1:15 PM 41.0 °F 32.8 °F 21.2 °F 45% 29.89 in 10.0 mi WSW 16.1 mph 27.6 mph N/A   Scattered Clouds
1:35 PM 41.0 °F 30.7 °F 21.2 °F 45% 29.87 in 10.0 mi WSW 25.3 mph 35.7 mph N/A   Scattered Clouds
1:55 PM 41.0 °F 29.8 °F 21.2 °F 45% 29.85 in 10.0 mi WSW 29.9 mph 39.1 mph N/A   Clear
2:15 PM 42.8 °F 32.1 °F 21.2 °F 42% 29.83 in 10.0 mi WSW 31.1 mph 40.3 mph N/A   Clear
2:35 PM 42.8 °F 31.9 °F 21.2 °F 42% 29.83 in 10.0 mi WSW 32.2 mph 44.9 mph N/A   Clear
2:55 PM 42.8 °F 31.9 °F 21.2 °F 42% 29.83 in 10.0 mi WSW 32.2 mph 43.7 mph N/A   Clear
3:15 PM 42.8 °F 31.4 °F 21.2 °F 42% 29.82 in 10.0 mi WSW 35.7 mph 47.2 mph N/A   Clear
3:35 PM 42.8 °F 31.6 °F 21.2 °F 42% 29.82 in 10.0 mi WSW 34.5 mph 46.0 mph N/A   Clear
3:55 PM 42.8 °F 31.6 °F 21.2 °F 42% 29.81 in 10.0 mi WSW 34.5 mph 47.2 mph N/A   Clear
4:15 PM 42.8 °F 31.3 °F 21.2 °F 42% 29.81 in 10.0 mi WSW 36.8 mph 48.3 mph N/A   Clear
4:35 PM 42.8 °F 31.6 °F 21.2 °F 42% 29.81 in 10.0 mi WSW 34.5 mph 48.3 mph N/A   Clear
4:55 PM 41.0 °F 29.5 °F 23.0 °F 49% 29.81 in 10.0 mi West 32.2 mph 44.9 mph N/A   Clear
5:15 PM 41.0 °F 29.0 °F 23.0 °F 49% 29.81 in 10.0 mi WSW 35.7 mph 43.7 mph N/A   Clear
5:35 PM 41.0 °F 29.7 °F 23.0 °F 49% 29.82 in 10.0 mi WSW 31.1 mph 47.2 mph N/A   Clear
5:55 PM 41.0 °F 29.8 °F 23.0 °F 49% 29.83 in 10.0 mi WSW 29.9 mph 47.2 mph N/A   Clear
6:15 PM 37.4 °F 25.4 °F 23.0 °F 56% 29.83 in 10.0 mi West 27.6 mph 42.6 mph N/A   Clear
6:35 PM 37.4 °F 26.9 °F 23.0 °F 56% 29.86 in 10.0 mi West 20.7 mph 36.8 mph N/A   Clear
6:55 PM 35.6 °F 27.1 °F 24.8 °F 65% 29.87 in 10.0 mi West 12.7 mph 26.5 mph N/A   Clear
7:15 PM 35.6 °F 25.9 °F 23.0 °F 60% 29.87 in 10.0 mi West 16.1 mph 31.1 mph N/A   Clear
7:35 PM 35.6 °F 28.0 °F 23.0 °F 60% 29.89 in 10.0 mi West 10.4 mph 18.4 mph N/A   Clear
8:15 PM 35.6 °F 30.7 °F 23.0 °F 60% 29.91 in 10.0 mi NNW 5.8 mph 17.3 mph N/A   Clear
8:35 PM 35.6 °F 30.7 °F 23.0 °F 60% 29.92 in 10.0 mi West 5.8 mph - N/A   Clear
8:55 PM 35.6 °F - 23.0 °F 60% 29.92 in 10.0 mi Calm Calm - N/A   Clear
9:15 PM 35.6 °F - 21.2 °F 56% 29.94 in 10.0 mi Calm Calm - N/A   Clear
9:35 PM 35.6 °F - 23.0 °F 60% 29.94 in 10.0 mi Calm Calm - N/A   Clear
9:55 PM 33.8 °F - 21.2 °F 60% 29.94 in 10.0 mi Calm Calm - N/A   Clear
10:15 PM 33.8 °F 29.6 °F 21.2 °F 60% 29.94 in 10.0 mi North 4.6 mph - N/A   Clear
10:35 PM 35.6 °F - 21.2 °F 56% 29.92 in 10.0 mi Calm Calm - N/A   Clear
10:55 PM 35.6 °F 29.9 °F 21.2 °F 56% 29.92 in 10.0 mi WNW 6.9 mph - N/A   Clear
11:15 PM 33.8 °F - 21.2 °F 60% 29.92 in 10.0 mi Calm Calm - N/A   Clear
11:35 PM 33.8 °F 30.8 °F 21.2 °F 60% 29.92 in 10.0 mi WNW 3.5 mph - N/A   Clear
11:55 PM 33.8 °F 27.7 °F 21.2 °F 60% 29.92 in 10.0 mi WNW 6.9 mph - N/A   Clear